New Windsor, New York
Current Conditions -  °F | °C
As of 12:45 AM on Monday 20 Oct 2014 (Local Time) from KSWF Reporting Station
Clear Clear  
Wind Chill: 31°   Ceiling: Unl
Heat Index: 36°   Visibility: 10mi
Dew Point: 28°   Wind: 6mph
Humidity: 75%   Direction: 340°NNW
Pressure: 30.06"   Gusts: NA
Location:  41.48°N, 74.02°W
Report Text: KSWF 200445Z 34005KT 10SM SKC 02/M02 A3006
Loading
Personal Weather Stations






























Interactive Weather Map
Tropical Storm Tracking
New forecast layout! Learn more

10-Day Weather Forecast

Advertisements
Track Severe Weather on mobile